sensor_id;sensor_type;location;lat;lon;timestamp;pressure;altitude;pressure_sealevel;temperature;humidity
10176;BME280;18221;38.704;0.152;2023-05-19T00:01:49;98927.31;;;22.44;37.12
10176;BME280;18221;38.704;0.152;2023-05-19T00:04:18;98926.13;;;22.33;37.13
10176;BME280;18221;38.704;0.152;2023-05-19T00:06:49;98918.44;;;22.30;37.16
10176;BME280;18221;38.704;0.152;2023-05-19T00:09:18;98928.69;;;22.22;37.33
10176;BME280;18221;38.704;0.152;2023-05-19T00:11:46;98924.56;;;22.12;37.41
10176;BME280;18221;38.704;0.152;2023-05-19T00:14:15;98925.22;;;22.08;37.43
10176;BME280;18221;38.704;0.152;2023-05-19T00:16:44;98912.38;;;21.97;36.94
10176;BME280;18221;38.704;0.152;2023-05-19T00:19:14;98906.78;;;21.92;36.25
10176;BME280;18221;38.704;0.152;2023-05-19T00:21:42;98915.28;;;21.95;36.22
10176;BME280;18221;38.704;0.152;2023-05-19T00:24:10;98911.59;;;21.90;36.09
10176;BME280;18221;38.704;0.152;2023-05-19T00:26:38;98899.31;;;21.87;36.25
10176;BME280;18221;38.704;0.152;2023-05-19T00:29:06;98907.41;;;21.94;36.45
10176;BME280;18221;38.704;0.152;2023-05-19T00:31:36;98901.81;;;21.89;36.68
10176;BME280;18221;38.704;0.152;2023-05-19T00:34:07;98900.97;;;21.88;36.74
10176;BME280;18221;38.704;0.152;2023-05-19T00:36:36;98911.16;;;21.86;36.99
10176;BME280;18221;38.704;0.152;2023-05-19T00:39:04;98903.03;;;21.80;37.04
10176;BME280;18221;38.704;0.152;2023-05-19T00:41:33;98900.56;;;21.78;37.09
10176;BME280;18221;38.704;0.152;2023-05-19T00:44:01;98909.50;;;21.79;37.04
10176;BME280;18221;38.704;0.152;2023-05-19T00:46:29;98907.84;;;21.78;37.29
10176;BME280;18221;38.704;0.152;2023-05-19T00:48:57;98909.69;;;21.84;36.88
10176;BME280;18221;38.704;0.152;2023-05-19T00:51:27;98907.19;;;21.82;37.00
10176;BME280;18221;38.704;0.152;2023-05-19T00:53:58;98913.66;;;21.81;37.09
10176;BME280;18221;38.704;0.152;2023-05-19T00:56:26;98915.75;;;21.79;37.05
10176;BME280;18221;38.704;0.152;2023-05-19T00:58:54;98908.06;;;21.76;37.22
10176;BME280;18221;38.704;0.152;2023-05-19T01:01:23;98902.66;;;21.76;37.18
10176;BME280;18221;38.704;0.152;2023-05-19T01:03:52;98907.19;;;21.82;37.17
10176;BME280;18221;38.704;0.152;2023-05-19T01:06:22;98903.25;;;21.78;37.28
10176;BME280;18221;38.704;0.152;2023-05-19T01:08:51;98895.75;;;21.80;37.27
10176;BME280;18221;38.704;0.152;2023-05-19T01:11:20;98901.22;;;21.74;37.48
10176;BME280;18221;38.704;0.152;2023-05-19T01:13:48;98899.34;;;21.74;37.61
10176;BME280;18221;38.704;0.152;2023-05-19T01:16:24;98893.53;;;21.71;37.60
10176;BME280;18221;38.704;0.152;2023-05-19T01:19:03;98894.19;;;21.66;37.97
10176;BME280;18221;38.704;0.152;2023-05-19T01:22:12;98888.97;;;21.65;38.11
10176;BME280;18221;38.704;0.152;2023-05-19T01:25:22;98896.03;;;21.59;38.52
10176;BME280;18221;38.704;0.152;2023-05-19T01:28:36;98889.19;;;21.63;38.55
10176;BME280;18221;38.704;0.152;2023-05-19T01:31:22;98896.28;;;21.58;38.40
10176;BME280;18221;38.704;0.152;2023-05-19T01:33:53;98896.91;;;21.46;38.75
10176;BME280;18221;38.704;0.152;2023-05-19T01:36:24;98886.72;;;21.48;38.68
10176;BME280;18221;38.704;0.152;2023-05-19T01:38:57;98890.06;;;21.44;38.64
10176;BME280;18221;38.704;0.152;2023-05-19T01:41:26;98878.44;;;21.43;38.74
10176;BME280;18221;38.704;0.152;2023-05-19T01:43:56;98885.31;;;21.39;38.75
10176;BME280;18221;38.704;0.152;2023-05-19T01:46:26;98878.03;;;21.33;38.66
10176;BME280;18221;38.704;0.152;2023-05-19T01:48:54;98878.88;;;21.34;38.73
10176;BME280;18221;38.704;0.152;2023-05-19T01:51:23;98874.94;;;21.30;38.67
10176;BME280;18221;38.704;0.152;2023-05-19T01:53:51;98879.72;;;21.28;38.61
10176;BME280;18221;38.704;0.152;2023-05-19T01:56:29;98885.97;;;21.22;38.69
10176;BME280;18221;38.704;0.152;2023-05-19T01:59:20;98879.72;;;21.15;38.53
10176;BME280;18221;38.704;0.152;2023-05-19T02:01:58;98876.00;;;21.16;38.33
10176;BME280;18221;38.704;0.152;2023-05-19T02:04:38;98862.94;;;21.06;38.20
10176;BME280;18221;38.704;0.152;2023-05-19T02:07:16;98870.00;;;21.07;38.13
10176;BME280;18221;38.704;0.152;2023-05-19T02:09:54;98862.06;;;21.06;37.91
10176;BME280;18221;38.704;0.152;2023-05-19T02:12:34;98856.06;;;21.04;37.64
10176;BME280;18221;38.704;0.152;2023-05-19T02:15:08;98858.78;;;20.90;37.60
10176;BME280;18221;38.704;0.152;2023-05-19T02:17:43;98866.03;;;20.90;37.67
10176;BME280;18221;38.704;0.152;2023-05-19T02:20:17;98865.63;;;20.93;37.52
10176;BME280;18221;38.704;0.152;2023-05-19T02:22:47;98873.31;;;20.83;37.96
10176;BME280;18221;38.704;0.152;2023-05-19T02:25:15;98874.13;;;20.83;37.83
10176;BME280;18221;38.704;0.152;2023-05-19T02:27:43;98873.72;;;20.86;37.91
10176;BME280;18221;38.704;0.152;2023-05-19T02:30:12;98863.97;;;20.79;37.93
10176;BME280;18221;38.704;0.152;2023-05-19T02:32:42;98857.31;;;20.68;38.46
10176;BME280;18221;38.704;0.152;2023-05-19T02:35:12;98857.75;;;20.72;38.51
10176;BME280;18221;38.704;0.152;2023-05-19T02:37:40;98856.09;;;20.77;38.72
10176;BME280;18221;38.704;0.152;2023-05-19T02:40:08;98846.53;;;20.55;39.59
10176;BME280;18221;38.704;0.152;2023-05-19T02:42:36;98851.72;;;20.57;39.87
10176;BME280;18221;38.704;0.152;2023-05-19T02:45:06;98845.09;;;20.72;39.45
10176;BME280;18221;38.704;0.152;2023-05-19T02:47:34;98852.34;;;20.78;39.42
10176;BME280;18221;38.704;0.152;2023-05-19T02:50:04;98845.09;;;20.85;39.49
10176;BME280;18221;38.704;0.152;2023-05-19T02:52:32;98837.38;;;20.96;39.41
10176;BME280;18221;38.704;0.152;2023-05-19T02:55:00;98839.22;;;21.02;39.64
10176;BME280;18221;38.704;0.152;2023-05-19T02:57:29;98840.66;;;21.04;39.81
10176;BME280;18221;38.704;0.152;2023-05-19T02:59:58;98850.03;;;20.95;40.28
10176;BME280;18221;38.704;0.152;2023-05-19T03:02:26;98844.44;;;20.97;40.44
10176;BME280;18221;38.704;0.152;2023-05-19T03:04:54;98840.69;;;20.98;40.52
10176;BME280;18221;38.704;0.152;2023-05-19T03:07:31;98841.34;;;21.06;40.52
10176;BME280;18221;38.704;0.152;2023-05-19T03:09:59;98838.81;;;21.05;40.81
10176;BME280;18221;38.704;0.152;2023-05-19T03:12:29;98841.75;;;20.90;41.28
10176;BME280;18221;38.704;0.152;2023-05-19T03:14:57;98837.38;;;20.96;41.44
10176;BME280;18221;38.704;0.152;2023-05-19T03:17:27;98843.19;;;21.06;41.40
10176;BME280;18221;38.704;0.152;2023-05-19T03:19:59;98849.00;;;21.03;42.10
10176;BME280;18221;38.704;0.152;2023-05-19T03:22:27;98842.38;;;20.99;42.71
10176;BME280;18221;38.704;0.152;2023-05-19T03:24:57;98839.66;;;21.05;43.00
10176;BME280;18221;38.704;0.152;2023-05-19T03:27:25;98841.13;;;21.01;43.39
10176;BME280;18221;38.704;0.152;2023-05-19T03:29:53;98837.78;;;21.06;43.62
10176;BME280;18221;38.704;0.152;2023-05-19T03:32:21;98836.94;;;21.05;43.77
10176;BME280;18221;38.704;0.152;2023-05-19T03:34:49;98832.56;;;21.04;44.14
10176;BME280;18221;38.704;0.152;2023-05-19T03:37:17;98830.31;;;21.08;44.59
10176;BME280;18221;38.704;0.152;2023-05-19T03:39:45;98832.19;;;21.01;44.84
10176;BME280;18221;38.704;0.152;2023-05-19T03:42:15;98835.09;;;20.92;45.48
10176;BME280;18221;38.704;0.152;2023-05-19T03:44:42;98828.66;;;20.87;46.30
10176;BME280;18221;38.704;0.152;2023-05-19T03:47:11;98825.34;;;20.91;46.38
10176;BME280;18221;38.704;0.152;2023-05-19T03:49:38;98835.09;;;20.86;46.96
10176;BME280;18221;38.704;0.152;2023-05-19T03:52:06;98825.34;;;20.85;47.03
10176;BME280;18221;38.704;0.152;2023-05-19T03:54:35;98833.44;;;20.78;47.15
10176;BME280;18221;38.704;0.152;2023-05-19T03:57:05;98839.50;;;20.67;47.52
10176;BME280;18221;38.704;0.152;2023-05-19T03:59:34;98830.97;;;20.64;47.52
10176;BME280;18221;38.704;0.152;2023-05-19T04:02:03;98839.50;;;20.54;48.24
10176;BME280;18221;38.704;0.152;2023-05-19T04:04:31;98840.75;;;20.52;48.12
10176;BME280;18221;38.704;0.152;2023-05-19T04:06:59;98846.94;;;20.46;48.63
10176;BME280;18221;38.704;0.152;2023-05-19T04:09:27;98837.38;;;20.30;50.80
10176;BME280;18221;38.704;0.152;2023-05-19T04:11:57;98842.31;;;20.20;51.66
10176;BME280;18221;38.704;0.152;2023-05-19T04:14:25;98843.53;;;20.04;52.58
10176;BME280;18221;38.704;0.152;2023-05-19T04:16:54;98843.28;;;19.93;53.20
10176;BME280;18221;38.704;0.152;2023-05-19T04:19:22;98847.66;;;19.94;53.40
10176;BME280;18221;38.704;0.152;2023-05-19T04:21:50;98841.00;;;19.90;53.78
10176;BME280;18221;38.704;0.152;2023-05-19T04:24:18;98851.72;;;19.77;53.77
10176;BME280;18221;38.704;0.152;2023-05-19T04:26:49;98849.69;;;19.79;54.01
10176;BME280;18221;38.704;0.152;2023-05-19T04:29:17;98846.34;;;19.77;54.25
10176;BME280;18221;38.704;0.152;2023-05-19T04:31:45;98850.88;;;19.69;54.47
10176;BME280;18221;38.704;0.152;2023-05-19T04:34:15;98854.16;;;19.58;54.58
10176;BME280;18221;38.704;0.152;2023-05-19T04:36:45;98855.13;;;19.44;54.51
10176;BME280;18221;38.704;0.152;2023-05-19T04:39:13;98855.09;;;19.38;54.91
10176;BME280;18221;38.704;0.152;2023-05-19T04:41:41;98849.94;;;19.43;54.63
10176;BME280;18221;38.704;0.152;2023-05-19T04:44:10;98853.47;;;19.43;54.82
10176;BME280;18221;38.704;0.152;2023-05-19T04:46:38;98857.00;;;19.50;54.59
10176;BME280;18221;38.704;0.152;2023-05-19T04:49:07;98859.13;;;19.55;54.60
10176;BME280;18221;38.704;0.152;2023-05-19T04:51:39;98859.91;;;19.49;54.66
10176;BME280;18221;38.704;0.152;2023-05-19T04:54:07;98861.16;;;19.46;54.87
10176;BME280;18221;38.704;0.152;2023-05-19T04:56:36;98860.69;;;19.43;54.79
10176;BME280;18221;38.704;0.152;2023-05-19T04:59:04;98866.81;;;19.30;55.13
10176;BME280;18221;38.704;0.152;2023-05-19T05:01:33;98862.50;;;19.36;54.90
10176;BME280;18221;38.704;0.152;2023-05-19T05:04:05;98878.81;;;19.28;55.22
10176;BME280;18221;38.704;0.152;2023-05-19T05:06:33;98885.09;;;19.07;55.69
10176;BME280;18221;38.704;0.152;2023-05-19T05:09:05;98888.03;;;19.12;55.69
10176;BME280;18221;38.704;0.152;2023-05-19T05:11:34;98896.09;;;19.12;55.94
10176;BME280;18221;38.704;0.152;2023-05-19T05:14:03;98911.66;;;18.89;56.63
10176;BME280;18221;38.704;0.152;2023-05-19T05:16:31;98914.50;;;18.81;56.88
10176;BME280;18221;38.704;0.152;2023-05-19T05:19:00;98901.06;;;18.60;57.11
10176;BME280;18221;38.704;0.152;2023-05-19T05:21:29;98905.31;;;18.69;57.06
10176;BME280;18221;38.704;0.152;2023-05-19T05:23:58;98901.00;;;18.74;56.84
10176;BME280;18221;38.704;0.152;2023-05-19T05:26:32;98906.78;;;18.71;57.25
10176;BME280;18221;38.704;0.152;2023-05-19T05:29:01;98907.03;;;18.55;57.52
10176;BME280;18221;38.704;0.152;2023-05-19T05:31:29;98903.88;;;18.52;57.58
10176;BME280;18221;38.704;0.152;2023-05-19T05:33:57;98895.19;;;18.49;57.74
10176;BME280;18221;38.704;0.152;2023-05-19T05:36:25;98891.50;;;18.51;57.81
10176;BME280;18221;38.704;0.152;2023-05-19T05:38:59;98901.03;;;18.38;58.38
10176;BME280;18221;38.704;0.152;2023-05-19T05:41:29;98897.53;;;18.38;58.04
10176;BME280;18221;38.704;0.152;2023-05-19T05:44:00;98897.91;;;18.35;58.16
10176;BME280;18221;38.704;0.152;2023-05-19T05:46:28;98901.63;;;18.34;58.28
10176;BME280;18221;38.704;0.152;2023-05-19T05:48:57;98896.69;;;18.37;58.24
10176;BME280;18221;38.704;0.152;2023-05-19T05:51:26;98905.16;;;18.34;58.01
10176;BME280;18221;38.704;0.152;2023-05-19T05:53:56;98900.28;;;18.23;58.33
10176;BME280;18221;38.704;0.152;2023-05-19T05:56:26;98894.78;;;18.31;58.32
10176;BME280;18221;38.704;0.152;2023-05-19T05:58:55;98897.00;;;18.28;58.38
10176;BME280;18221;38.704;0.152;2023-05-19T06:01:24;98894.00;;;18.37;58.22
10176;BME280;18221;38.704;0.152;2023-05-19T06:03:51;98889.91;;;18.41;58.05
10176;BME280;18221;38.704;0.152;2023-05-19T06:06:19;98897.78;;;18.43;58.15
10176;BME280;18221;38.704;0.152;2023-05-19T06:08:47;98899.94;;;18.47;58.22
10176;BME280;18221;38.704;0.152;2023-05-19T06:11:15;98898.88;;;18.48;58.20
10176;BME280;18221;38.704;0.152;2023-05-19T06:13:44;98896.19;;;18.48;57.92
10176;BME280;18221;38.704;0.152;2023-05-19T06:16:14;98902.63;;;18.47;58.21
10176;BME280;18221;38.704;0.152;2023-05-19T06:18:42;98896.19;;;18.48;58.19
10176;BME280;18221;38.704;0.152;2023-05-19T06:21:12;98899.59;;;18.57;58.15
10176;BME280;18221;38.704;0.152;2023-05-19T06:23:40;98897.13;;;18.56;57.89
10176;BME280;18221;38.704;0.152;2023-05-19T06:26:08;98896.47;;;18.54;58.10
10176;BME280;18221;38.704;0.152;2023-05-19T06:28:36;98897.25;;;18.47;58.20
10176;BME280;18221;38.704;0.152;2023-05-19T06:31:04;98900.22;;;18.59;58.17
10176;BME280;18221;38.704;0.152;2023-05-19T06:33:34;98891.59;;;18.64;58.21
10176;BME280;18221;38.704;0.152;2023-05-19T06:36:03;98891.25;;;18.73;58.22
10176;BME280;18221;38.704;0.152;2023-05-19T06:38:33;98897.84;;;18.92;57.84
10176;BME280;18221;38.704;0.152;2023-05-19T06:41:01;98896.84;;;18.99;57.86
10176;BME280;18221;38.704;0.152;2023-05-19T06:43:29;98897.53;;;19.08;57.60
10176;BME280;18221;38.704;0.152;2023-05-19T06:45:57;98899.19;;;19.09;57.73
10176;BME280;18221;38.704;0.152;2023-05-19T06:48:25;98906.44;;;19.08;57.84
10176;BME280;18221;38.704;0.152;2023-05-19T06:50:54;98899.00;;;19.10;57.65
10176;BME280;18221;38.704;0.152;2023-05-19T06:53:22;98901.09;;;19.15;57.58
10176;BME280;18221;38.704;0.152;2023-05-19T06:55:50;98894.44;;;19.11;57.51
10176;BME280;18221;38.704;0.152;2023-05-19T06:58:19;98901.13;;;19.22;57.43
10176;BME280;18221;38.704;0.152;2023-05-19T07:00:47;98911.66;;;19.17;57.22
10176;BME280;18221;38.704;0.152;2023-05-19T07:03:15;98912.47;;;19.10;57.32
10176;BME280;18221;38.704;0.152;2023-05-19T07:05:43;98911.25;;;19.13;57.36
10176;BME280;18221;38.704;0.152;2023-05-19T07:08:14;98909.88;;;19.24;56.99
10176;BME280;18221;38.704;0.152;2023-05-19T07:10:41;98909.22;;;19.22;57.06
10176;BME280;18221;38.704;0.152;2023-05-19T07:13:09;98911.38;;;19.05;57.07
10176;BME280;18221;38.704;0.152;2023-05-19T07:15:38;98911.66;;;18.89;57.09
10176;BME280;18221;38.704;0.152;2023-05-19T07:18:06;98917.72;;;18.70;57.27
10176;BME280;18221;38.704;0.152;2023-05-19T07:20:34;98922.13;;;18.77;56.99
10176;BME280;18221;38.704;0.152;2023-05-19T07:23:02;98913.75;;;18.66;57.07
10176;BME280;18221;38.704;0.152;2023-05-19T07:25:32;98915.34;;;18.60;57.10
10176;BME280;18221;38.704;0.152;2023-05-19T07:28:00;98902.25;;;18.51;57.15
10176;BME280;18221;38.704;0.152;2023-05-19T07:30:28;98904.25;;;18.48;57.31
10176;BME280;18221;38.704;0.152;2023-05-19T07:32:56;98905.53;;;18.31;57.57
10176;BME280;18221;38.704;0.152;2023-05-19T07:35:26;98906.09;;;18.27;57.65
10176;BME280;18221;38.704;0.152;2023-05-19T07:37:54;98900.09;;;18.25;57.79
10176;BME280;18221;38.704;0.152;2023-05-19T07:40:22;98910.44;;;18.28;57.81
10176;BME280;18221;38.704;0.152;2023-05-19T07:42:51;98905.91;;;18.28;57.83
10176;BME280;18221;38.704;0.152;2023-05-19T07:45:19;98895.53;;;18.25;57.85
10176;BME280;18221;38.704;0.152;2023-05-19T07:47:47;98893.09;;;18.30;57.63
10176;BME280;18221;38.704;0.152;2023-05-19T07:50:15;98890.81;;;18.27;57.58
10176;BME280;18221;38.704;0.152;2023-05-19T07:52:43;98883.00;;;18.11;57.78
10176;BME280;18221;38.704;0.152;2023-05-19T07:55:11;98879.94;;;18.14;57.49
10176;BME280;18221;38.704;0.152;2023-05-19T07:57:39;98871.88;;;18.14;57.39
10176;BME280;18221;38.704;0.152;2023-05-19T08:00:10;98866.63;;;18.27;57.53
10176;BME280;18221;38.704;0.152;2023-05-19T08:02:39;98873.53;;;18.36;57.69
10176;BME280;18221;38.704;0.152;2023-05-19T08:05:08;98873.28;;;18.53;57.53
10176;BME280;18221;38.704;0.152;2023-05-19T08:07:37;98870.91;;;18.64;57.35
10176;BME280;18221;38.704;0.152;2023-05-19T08:10:06;98875.16;;;18.80;57.13
10176;BME280;18221;38.704;0.152;2023-05-19T08:12:34;98877.66;;;19.09;56.84
10176;BME280;18221;38.704;0.152;2023-05-19T08:15:02;98879.56;;;19.15;56.30
10176;BME280;18221;38.704;0.152;2023-05-19T08:17:32;98878.34;;;19.18;56.22
10176;BME280;18221;38.704;0.152;2023-05-19T08:20:00;98872.44;;;19.69;56.00
10176;BME280;18221;38.704;0.152;2023-05-19T08:22:29;98885.56;;;19.86;55.30
10176;BME280;18221;38.704;0.152;2023-05-19T08:24:57;98889.28;;;19.85;54.85
10176;BME280;18221;38.704;0.152;2023-05-19T08:27:25;98882.28;;;20.03;54.43
10176;BME280;18221;38.704;0.152;2023-05-19T08:29:53;98889.53;;;20.03;54.16
10176;BME280;18221;38.704;0.152;2023-05-19T08:32:22;98890.03;;;20.19;53.68
10176;BME280;18221;38.704;0.152;2023-05-19T08:34:52;98891.75;;;20.40;53.25
10176;BME280;18221;38.704;0.152;2023-05-19T08:37:19;98882.00;;;20.46;52.37
10176;BME280;18221;38.704;0.152;2023-05-19T08:39:47;98890.28;;;20.24;52.51
10176;BME280;18221;38.704;0.152;2023-05-19T08:42:15;98885.88;;;20.17;52.48
10176;BME280;18221;38.704;0.152;2023-05-19T08:44:43;98890.47;;;20.29;52.52
10176;BME280;18221;38.704;0.152;2023-05-19T08:47:13;98896.44;;;20.18;52.46
10176;BME280;18221;38.704;0.152;2023-05-19T08:49:44;98893.56;;;20.20;52.62
10176;BME280;18221;38.704;0.152;2023-05-19T08:52:26;98896.63;;;20.10;52.60
10176;BME280;18221;38.704;0.152;2023-05-19T08:55:07;98898.69;;;20.08;52.54
10176;BME280;18221;38.704;0.152;2023-05-19T08:57:37;98887.94;;;20.21;52.54
10176;BME280;18221;38.704;0.152;2023-05-19T09:00:07;98894.97;;;20.09;52.95
10176;BME280;18221;38.704;0.152;2023-05-19T09:02:38;98893.22;;;20.36;52.57
10176;BME280;18221;38.704;0.152;2023-05-19T09:05:07;98893.63;;;20.33;52.67
10176;BME280;18221;38.704;0.152;2023-05-19T09:07:39;98899.66;;;20.48;52.27
10176;BME280;18221;38.704;0.152;2023-05-19T09:10:09;98900.69;;;20.54;51.89
10176;BME280;18221;38.704;0.152;2023-05-19T09:12:40;98893.03;;;20.64;51.64
10176;BME280;18221;38.704;0.152;2023-05-19T09:15:09;98890.94;;;20.66;51.17
10176;BME280;18221;38.704;0.152;2023-05-19T09:17:38;98890.13;;;20.72;51.12
10176;BME280;18221;38.704;0.152;2023-05-19T09:20:07;98887.63;;;21.03;49.50
10176;BME280;18221;38.704;0.152;2023-05-19T09:22:43;98892.19;;;21.03;48.19
10176;BME280;18221;38.704;0.152;2023-05-19T09:25:19;98893.44;;;21.07;47.13
10176;BME280;18221;38.704;0.152;2023-05-19T09:27:49;98901.97;;;20.90;47.03
10176;BME280;18221;38.704;0.152;2023-05-19T09:30:17;98899.28;;;20.90;46.72
10176;BME280;18221;38.704;0.152;2023-05-19T09:32:46;98894.72;;;21.11;46.55
10176;BME280;18221;38.704;0.152;2023-05-19T09:35:14;98886.00;;;21.09;46.94
10176;BME280;18221;38.704;0.152;2023-05-19T09:37:44;98883.28;;;21.15;46.95
10176;BME280;18221;38.704;0.152;2023-05-19T09:40:14;98882.66;;;21.07;46.26
10176;BME280;18221;38.704;0.152;2023-05-19T09:42:42;98885.13;;;20.95;46.12
10176;BME280;18221;38.704;0.152;2023-05-19T09:45:10;98869.38;;;21.12;45.65
10176;BME280;18221;38.704;0.152;2023-05-19T09:47:40;98871.00;;;21.26;45.56
10176;BME280;18221;38.704;0.152;2023-05-19T09:50:11;98865.75;;;21.50;45.07
10176;BME280;18221;38.704;0.152;2023-05-19T09:52:43;98864.72;;;21.45;45.15
10176;BME280;18221;38.704;0.152;2023-05-19T09:55:12;98880.34;;;21.30;45.32
10176;BME280;18221;38.704;0.152;2023-05-19T09:57:40;98883.06;;;21.30;45.02
10176;BME280;18221;38.704;0.152;2023-05-19T10:00:10;98864.91;;;21.50;44.39
10176;BME280;18221;38.704;0.152;2023-05-19T10:02:42;98877.03;;;21.85;43.86
10176;BME280;18221;38.704;0.152;2023-05-19T10:05:13;98880.16;;;21.82;43.71
10176;BME280;18221;38.704;0.152;2023-05-19T10:07:44;98874.16;;;21.80;43.19
10176;BME280;18221;38.704;0.152;2023-05-19T10:10:14;98872.19;;;21.56;42.98
10176;BME280;18221;38.704;0.152;2023-05-19T10:12:43;98876.09;;;21.60;42.78
10176;BME280;18221;38.704;0.152;2023-05-19T10:15:13;98879.72;;;21.34;43.05
10176;BME280;18221;38.704;0.152;2023-05-19T10:17:43;98883.03;;;21.36;42.99
10176;BME280;18221;38.704;0.152;2023-05-19T10:20:13;98879.75;;;21.08;43.24
10176;BME280;18221;38.704;0.152;2023-05-19T10:22:45;98876.63;;;20.98;43.49
10176;BME280;18221;38.704;0.152;2023-05-19T10:25:14;98869.34;;;21.18;43.53
10176;BME280;18221;38.704;0.152;2023-05-19T10:27:51;98873.50;;;21.21;43.26
10176;BME280;18221;38.704;0.152;2023-05-19T10:30:27;98875.16;;;21.35;43.18
10176;BME280;18221;38.704;0.152;2023-05-19T10:32:58;98874.19;;;21.67;42.33
10176;BME280;18221;38.704;0.152;2023-05-19T10:35:58;98873.22;;;22.06;41.36
10176;BME280;18221;38.704;0.152;2023-05-19T10:38:46;98871.44;;;22.56;40.92
10176;BME280;18221;38.704;0.152;2023-05-19T10:41:26;98877.28;;;22.53;39.45
10176;BME280;18221;38.704;0.152;2023-05-19T10:44:06;98868.41;;;22.77;38.37
10176;BME280;18221;38.704;0.152;2023-05-19T10:46:36;98861.31;;;22.45;38.53
10176;BME280;18221;38.704;0.152;2023-05-19T10:49:19;98857.56;;;22.21;38.32
10176;BME280;18221;38.704;0.152;2023-05-19T10:51:48;98859.06;;;22.10;38.25
10176;BME280;18221;38.704;0.152;2023-05-19T10:54:41;98850.97;;;22.35;38.17
10176;BME280;18221;38.704;0.152;2023-05-19T10:57:17;98851.13;;;22.47;38.46
10176;BME280;18221;38.704;0.152;2023-05-19T10:59:46;98844.63;;;22.23;37.97
10176;BME280;18221;38.704;0.152;2023-05-19T11:02:37;98834.25;;;22.76;37.08
10176;BME280;18221;38.704;0.152;2023-05-19T11:05:10;98838.78;;;22.82;36.73
10176;BME280;18221;38.704;0.152;2023-05-19T11:07:41;98841.75;;;22.74;36.83
10176;BME280;18221;38.704;0.152;2023-05-19T11:10:12;98835.16;;;22.70;36.60
10176;BME280;18221;38.704;0.152;2023-05-19T11:12:42;98838.50;;;22.90;36.50
10176;BME280;18221;38.704;0.152;2023-05-19T11:15:13;98837.28;;;22.86;36.34
10176;BME280;18221;38.704;0.152;2023-05-19T11:17:44;98843.69;;;22.67;36.32
10176;BME280;18221;38.704;0.152;2023-05-19T11:20:22;98837.13;;;22.81;36.69
10176;BME280;18221;38.704;0.152;2023-05-19T11:23:08;98834.75;;;22.91;36.51
10176;BME280;18221;38.704;0.152;2023-05-19T11:25:46;98827.72;;;23.26;36.51
10176;BME280;18221;38.704;0.152;2023-05-19T11:28:17;98826.34;;;22.99;36.06
10176;BME280;18221;38.704;0.152;2023-05-19T11:30:47;98830.28;;;22.79;35.94
10176;BME280;18221;38.704;0.152;2023-05-19T11:33:17;98846.13;;;22.75;35.70
10176;BME280;18221;38.704;0.152;2023-05-19T11:35:46;98833.13;;;22.59;35.90
10176;BME280;18221;38.704;0.152;2023-05-19T11:38:15;98849.09;;;22.92;35.88
10176;BME280;18221;38.704;0.152;2023-05-19T11:40:47;98839.25;;;22.97;35.27
10176;BME280;18221;38.704;0.152;2023-05-19T11:43:15;98833.53;;;22.87;35.53
10176;BME280;18221;38.704;0.152;2023-05-19T11:45:44;98848.94;;;22.87;35.43
10176;BME280;18221;38.704;0.152;2023-05-19T11:48:15;98836.50;;;22.79;35.30
10176;BME280;18221;38.704;0.152;2023-05-19T11:50:43;98829.56;;;23.08;35.54
10176;BME280;18221;38.704;0.152;2023-05-19T11:53:12;98829.88;;;23.36;35.06
10176;BME280;18221;38.704;0.152;2023-05-19T11:55:47;98829.44;;;23.21;35.21
10176;BME280;18221;38.704;0.152;2023-05-19T11:58:16;98820.56;;;23.32;34.87
10176;BME280;18221;38.704;0.152;2023-05-19T12:00:45;98822.28;;;23.26;35.07
10176;BME280;18221;38.704;0.152;2023-05-19T12:03:13;98809.03;;;23.18;34.49
10176;BME280;18221;38.704;0.152;2023-05-19T12:05:44;98821.97;;;23.41;34.43
10176;BME280;18221;38.704;0.152;2023-05-19T12:08:16;98816.75;;;23.40;33.89
10176;BME280;18221;38.704;0.152;2023-05-19T12:10:48;98823.06;;;23.52;33.72
10176;BME280;18221;38.704;0.152;2023-05-19T12:13:16;98817.50;;;23.47;33.55
10176;BME280;18221;38.704;0.152;2023-05-19T12:15:44;98816.31;;;23.43;33.58
10176;BME280;18221;38.704;0.152;2023-05-19T12:18:12;98806.41;;;23.30;33.22
10176;BME280;18221;38.704;0.152;2023-05-19T12:20:40;98809.81;;;23.25;33.36
10176;BME280;18221;38.704;0.152;2023-05-19T12:23:10;98812.81;;;23.35;34.55
10176;BME280;18221;38.704;0.152;2023-05-19T12:25:38;98812.97;;;23.77;34.49
10176;BME280;18221;38.704;0.152;2023-05-19T12:28:08;98804.09;;;23.70;33.35
10176;BME280;18221;38.704;0.152;2023-05-19T12:30:36;98816.44;;;23.66;32.63
10176;BME280;18221;38.704;0.152;2023-05-19T12:33:04;98816.38;;;23.72;33.04
10176;BME280;18221;38.704;0.152;2023-05-19T12:35:36;98810.97;;;23.84;33.46
10176;BME280;18221;38.704;0.152;2023-05-19T12:38:05;98798.19;;;23.73;32.95
10176;BME280;18221;38.704;0.152;2023-05-19T12:40:33;98796.97;;;23.87;32.64
10176;BME280;18221;38.704;0.152;2023-05-19T12:43:01;98804.09;;;24.00;32.39
10176;BME280;18221;38.704;0.152;2023-05-19T12:45:33;98796.50;;;23.90;32.49
10176;BME280;18221;38.704;0.152;2023-05-19T12:48:03;98799.88;;;23.56;33.17
10176;BME280;18221;38.704;0.152;2023-05-19T12:50:32;98794.38;;;23.62;33.57
10176;BME280;18221;38.704;0.152;2023-05-19T12:53:00;98797.00;;;23.69;33.40
10176;BME280;18221;38.704;0.152;2023-05-19T12:55:28;98795.34;;;23.98;33.53
10176;BME280;18221;38.704;0.152;2023-05-19T12:57:59;98799.59;;;24.23;32.60
10176;BME280;18221;38.704;0.152;2023-05-19T13:00:39;98793.03;;;24.01;32.27
10176;BME280;18221;38.704;0.152;2023-05-19T13:03:14;98802.09;;;24.07;32.95
10176;BME280;18221;38.704;0.152;2023-05-19T13:05:45;98794.75;;;24.25;33.55
10176;BME280;18221;38.704;0.152;2023-05-19T13:08:15;98789.72;;;24.52;31.89
10176;BME280;18221;38.704;0.152;2023-05-19T13:10:45;98802.72;;;24.50;31.50
10176;BME280;18221;38.704;0.152;2023-05-19T13:13:14;98786.34;;;24.80;32.16
10176;BME280;18221;38.704;0.152;2023-05-19T13:15:46;98788.69;;;24.76;31.48
10176;BME280;18221;38.704;0.152;2023-05-19T13:18:15;98790.09;;;24.67;31.24